Kenosha Regional Airport
KENW : now visible

Airfield :











YOU CAN JOIN US ON...

 
LOGIN :

Register | Disclaimer

   EN    FR    IT 

 









Legend :    VFR   Marginal VFR   IFR   Intensive IFR   Very Intensive IFR
Visi :
Ceiling :
>= 8 km
>= 3000ft
5 to 8 km
1000 to 3000 ft
1500m to 5 km
500 to 1000 ft
800 to 1500m
200 to 500 ft
< 800m
< 200 ft
Symbols :   Thunderstorms  Fog  Heavy snow  Heavy precipitations  Wind > 20 kt






- Airport Elevation : 742 ft


KENW - Kenosha Regional

CURRENT METAR :
  • 230653Z AUTO 27003KT 10SM CLR M13/M19 A3029 RMK AO2 SLP272 T11281189 $

EXPIRED METARs :
  • 230553Z AUTO 27005KT 10SM CLR M14/M19 A3028 RMK AO2 SLP272 T11391189 11106 21139 410221139 51009 $
  • 230453Z AUTO 29004KT 10SM CLR M13/M19 A3028 RMK AO2 SLP270 T11281189 $

TAF KENW
Valid from the 23 at 06:00 until the 24 at 06:00 UTC


230534Z 2306/2406 30005KT P6SM SKC
FM231600 25005KT P6SM FEW250
FM232300 17004KT P6SM BKN100
FM240500 16004KT P6SM VCSH OVC070
KZAU FIR / North America



MET'MAP, your aeronautical weather chart ! - Copyright ORBIFLY December 2007 - Disclaimer

ORBIFLY MET'MAP TEAM :

Programming & Development : Alexandra Zaïnal
Concept & original design : Baudouin d'Aumeries
Assistance for programming : Marc-Olivier Méhu
Technical & hardware support : Manuel Goepfert

Contact : metmap@orbifly.com




SOURCES & CREDITS :

   NOAA       Earth
Advisory